sensor_id;sensor_type;location;lat;lon;timestamp;pressure;altitude;pressure_sealevel;temperature;humidity
59939;BME280;45801;51.810;19.444;2023-04-09T00:01:12;99866.23;;;11.04;63.24
59939;BME280;45801;51.810;19.444;2023-04-09T00:03:38;99867.74;;;10.89;63.20
59939;BME280;45801;51.810;19.444;2023-04-09T00:06:05;99871.75;;;10.75;63.47
59939;BME280;45801;51.810;19.444;2023-04-09T00:08:32;99867.64;;;10.64;64.14
59939;BME280;45801;51.810;19.444;2023-04-09T00:10:59;99868.23;;;10.55;64.39
59939;BME280;45801;51.810;19.444;2023-04-09T00:13:25;99866.23;;;10.47;64.77
59939;BME280;45801;51.810;19.444;2023-04-09T00:15:52;99864.27;;;10.40;64.74
59939;BME280;45801;51.810;19.444;2023-04-09T00:18:18;99864.15;;;10.35;64.65
59939;BME280;45801;51.810;19.444;2023-04-09T00:20:44;99864.17;;;10.35;64.86
59939;BME280;45801;51.810;19.444;2023-04-09T00:23:11;99861.77;;;10.62;65.02
59939;BME280;45801;51.810;19.444;2023-04-09T00:25:37;99861.04;;;10.82;64.24
59939;BME280;45801;51.810;19.444;2023-04-09T00:28:04;99860.26;;;10.77;64.01
59939;BME280;45801;51.810;19.444;2023-04-09T00:30:30;99858.13;;;10.66;64.00
59939;BME280;45801;51.810;19.444;2023-04-09T00:32:57;99859.73;;;10.57;64.21
59939;BME280;45801;51.810;19.444;2023-04-09T00:35:24;99857.28;;;10.47;64.42
59939;BME280;45801;51.810;19.444;2023-04-09T00:37:51;99856.81;;;10.38;64.57
59939;BME280;45801;51.810;19.444;2023-04-09T00:40:18;99855.13;;;10.30;64.60
59939;BME280;45801;51.810;19.444;2023-04-09T00:42:44;99857.16;;;10.25;64.63
59939;BME280;45801;51.810;19.444;2023-04-09T00:45:11;99854.64;;;10.21;64.82
59939;BME280;45801;51.810;19.444;2023-04-09T00:47:37;99852.92;;;10.18;64.93
59939;BME280;45801;51.810;19.444;2023-04-09T00:50:04;99853.54;;;10.14;65.20
59939;BME280;45801;51.810;19.444;2023-04-09T00:52:31;99847.04;;;10.10;65.15
59939;BME280;45801;51.810;19.444;2023-04-09T00:55:00;99843.12;;;10.05;65.39
59939;BME280;45801;51.810;19.444;2023-04-09T00:57:26;99843.27;;;10.02;65.41
59939;BME280;45801;51.810;19.444;2023-04-09T00:59:54;99838.54;;;9.99;65.43
59939;BME280;45801;51.810;19.444;2023-04-09T01:02:20;99840.73;;;9.97;65.25
59939;BME280;45801;51.810;19.444;2023-04-09T01:04:48;99838.91;;;9.96;65.53
59939;BME280;45801;51.810;19.444;2023-04-09T01:07:22;99836.16;;;9.94;65.48
59939;BME280;45801;51.810;19.444;2023-04-09T01:15:53;99833.67;;;9.87;65.78
59939;BME280;45801;51.810;19.444;2023-04-09T01:18:27;99833.52;;;9.84;65.66
59939;BME280;45801;51.810;19.444;2023-04-09T01:21:01;99830.80;;;9.82;65.82
59939;BME280;45801;51.810;19.444;2023-04-09T01:23:36;99830.02;;;9.81;65.86
59939;BME280;45801;51.810;19.444;2023-04-09T01:29:14;99829.23;;;9.76;66.39
59939;BME280;45801;51.810;19.444;2023-04-09T01:31:42;99829.11;;;9.77;66.24
59939;BME280;45801;51.810;19.444;2023-04-09T01:34:10;99831.15;;;9.92;66.00
59939;BME280;45801;51.810;19.444;2023-04-09T01:36:39;99831.27;;;10.23;65.98
59939;BME280;45801;51.810;19.444;2023-04-09T01:39:06;99824.75;;;10.35;65.62
59939;BME280;45801;51.810;19.444;2023-04-09T01:41:34;99826.64;;;10.34;65.79
59939;BME280;45801;51.810;19.444;2023-04-09T01:44:03;99827.22;;;10.29;65.56
59939;BME280;45801;51.810;19.444;2023-04-09T01:46:32;99825.25;;;10.21;65.86
59939;BME280;45801;51.810;19.444;2023-04-09T01:48:59;99824.73;;;10.12;66.17
59939;BME280;45801;51.810;19.444;2023-04-09T01:51:27;99822.48;;;10.06;65.91
59939;BME280;45801;51.810;19.444;2023-04-09T01:53:55;99821.10;;;10.03;65.89
59939;BME280;45801;51.810;19.444;2023-04-09T01:56:21;99818.70;;;10.01;66.42
59939;BME280;45801;51.810;19.444;2023-04-09T01:58:49;99815.13;;;9.99;65.96
59939;BME280;45801;51.810;19.444;2023-04-09T02:01:22;99816.61;;;9.98;66.13
59939;BME280;45801;51.810;19.444;2023-04-09T02:03:57;99817.38;;;9.96;66.68
59939;BME280;45801;51.810;19.444;2023-04-09T02:06:37;99816.71;;;9.90;66.74
59939;BME280;45801;51.810;19.444;2023-04-09T02:09:07;99817.77;;;9.84;67.24
59939;BME280;45801;51.810;19.444;2023-04-09T02:11:37;99819.16;;;9.78;67.52
59939;BME280;45801;51.810;19.444;2023-04-09T02:14:06;99818.08;;;9.74;67.81
59939;BME280;45801;51.810;19.444;2023-04-09T02:16:37;99813.66;;;9.70;67.34
59939;BME280;45801;51.810;19.444;2023-04-09T02:19:04;99811.22;;;9.67;67.68
59939;BME280;45801;51.810;19.444;2023-04-09T02:21:31;99811.86;;;9.66;68.01
59939;BME280;45801;51.810;19.444;2023-04-09T02:23:57;99813.27;;;9.60;68.87
59939;BME280;45801;51.810;19.444;2023-04-09T02:26:25;99811.41;;;9.55;68.85
59939;BME280;45801;51.810;19.444;2023-04-09T02:28:51;99804.63;;;9.55;68.09
59939;BME280;45801;51.810;19.444;2023-04-09T02:31:18;99806.40;;;9.56;68.68
59939;BME280;45801;51.810;19.444;2023-04-09T02:33:44;99803.73;;;9.55;68.65
59939;BME280;45801;51.810;19.444;2023-04-09T02:36:11;99804.89;;;9.53;68.53
59939;BME280;45801;51.810;19.444;2023-04-09T02:38:41;99805.02;;;9.53;69.11
59939;BME280;45801;51.810;19.444;2023-04-09T02:41:08;99802.66;;;9.54;68.44
59939;BME280;45801;51.810;19.444;2023-04-09T02:43:35;99805.70;;;9.56;68.65
59939;BME280;45801;51.810;19.444;2023-04-09T02:46:02;99803.32;;;9.54;68.88
59939;BME280;45801;51.810;19.444;2023-04-09T02:48:28;99803.63;;;9.50;69.70
59939;BME280;45801;51.810;19.444;2023-04-09T02:50:55;99801.87;;;9.47;69.52
59939;BME280;45801;51.810;19.444;2023-04-09T02:53:22;99805.45;;;9.45;69.02
59939;BME280;45801;51.810;19.444;2023-04-09T02:55:48;99801.56;;;9.44;69.19
59939;BME280;45801;51.810;19.444;2023-04-09T02:58:14;99799.05;;;9.43;69.36
59939;BME280;45801;51.810;19.444;2023-04-09T03:00:41;99800.15;;;9.41;69.59
59939;BME280;45801;51.810;19.444;2023-04-09T03:03:08;99804.94;;;9.39;69.35
59939;BME280;45801;51.810;19.444;2023-04-09T03:05:34;99807.07;;;9.40;69.49
59939;BME280;45801;51.810;19.444;2023-04-09T03:08:01;99807.88;;;9.42;69.22
59939;BME280;45801;51.810;19.444;2023-04-09T03:10:27;99806.58;;;9.43;69.54
59939;BME280;45801;51.810;19.444;2023-04-09T03:12:54;99810.01;;;9.42;69.50
59939;BME280;45801;51.810;19.444;2023-04-09T03:15:20;99807.86;;;9.42;69.57
59939;BME280;45801;51.810;19.444;2023-04-09T03:17:47;99808.90;;;9.38;69.83
59939;BME280;45801;51.810;19.444;2023-04-09T03:20:13;99810.02;;;9.36;69.48
59939;BME280;45801;51.810;19.444;2023-04-09T03:22:40;99810.88;;;9.36;69.32
59939;BME280;45801;51.810;19.444;2023-04-09T03:25:07;99809.02;;;9.37;69.33
59939;BME280;45801;51.810;19.444;2023-04-09T03:27:33;99811.80;;;9.40;69.42
59939;BME280;45801;51.810;19.444;2023-04-09T03:30:00;99808.98;;;9.43;69.43
59939;BME280;45801;51.810;19.444;2023-04-09T03:32:26;99804.20;;;9.45;69.27
59939;BME280;45801;51.810;19.444;2023-04-09T03:34:53;99805.50;;;9.46;69.28
59939;BME280;45801;51.810;19.444;2023-04-09T03:37:19;99804.80;;;9.46;69.24
59939;BME280;45801;51.810;19.444;2023-04-09T03:39:46;99807.63;;;9.44;69.30
59939;BME280;45801;51.810;19.444;2023-04-09T03:42:13;99808.60;;;9.42;69.68
59939;BME280;45801;51.810;19.444;2023-04-09T03:44:39;99809.42;;;9.41;69.84
59939;BME280;45801;51.810;19.444;2023-04-09T03:47:06;99806.65;;;9.42;69.66
59939;BME280;45801;51.810;19.444;2023-04-09T03:49:36;99809.22;;;9.44;69.58
59939;BME280;45801;51.810;19.444;2023-04-09T03:52:05;99808.59;;;9.45;69.58
59939;BME280;45801;51.810;19.444;2023-04-09T03:54:31;99808.78;;;9.45;69.58
59939;BME280;45801;51.810;19.444;2023-04-09T03:56:59;99812.98;;;9.45;69.36
59939;BME280;45801;51.810;19.444;2023-04-09T03:59:27;99813.63;;;9.44;69.41
59939;BME280;45801;51.810;19.444;2023-04-09T04:01:54;99817.32;;;9.42;69.78
59939;BME280;45801;51.810;19.444;2023-04-09T04:04:21;99816.78;;;9.38;69.91
59939;BME280;45801;51.810;19.444;2023-04-09T04:06:48;99811.74;;;9.35;69.79
59939;BME280;45801;51.810;19.444;2023-04-09T04:09:14;99806.02;;;9.36;69.69
59939;BME280;45801;51.810;19.444;2023-04-09T04:11:41;99803.55;;;9.39;69.75
59939;BME280;45801;51.810;19.444;2023-04-09T04:14:07;99802.48;;;9.39;69.99
59939;BME280;45801;51.810;19.444;2023-04-09T04:16:34;99801.67;;;9.34;71.02
59939;BME280;45801;51.810;19.444;2023-04-09T04:19:00;99803.29;;;9.31;70.44
59939;BME280;45801;51.810;19.444;2023-04-09T04:21:27;99804.62;;;9.30;70.00
59939;BME280;45801;51.810;19.444;2023-04-09T04:23:53;99801.96;;;9.30;70.03
59939;BME280;45801;51.810;19.444;2023-04-09T04:26:20;99805.06;;;9.29;70.19
59939;BME280;45801;51.810;19.444;2023-04-09T04:28:46;99804.83;;;9.28;70.07
59939;BME280;45801;51.810;19.444;2023-04-09T04:31:13;99808.27;;;9.27;70.39
59939;BME280;45801;51.810;19.444;2023-04-09T04:33:41;99809.79;;;9.23;70.76
59939;BME280;45801;51.810;19.444;2023-04-09T04:36:10;99809.98;;;9.24;70.22
59939;BME280;45801;51.810;19.444;2023-04-09T04:38:38;99809.80;;;9.23;70.27
59939;BME280;45801;51.810;19.444;2023-04-09T04:41:06;99810.56;;;9.24;70.40
59939;BME280;45801;51.810;19.444;2023-04-09T04:43:33;99807.64;;;9.22;70.43
59939;BME280;45801;51.810;19.444;2023-04-09T04:45:59;99804.20;;;9.20;70.87
59939;BME280;45801;51.810;19.444;2023-04-09T04:48:27;99805.59;;;9.20;70.62
59939;BME280;45801;51.810;19.444;2023-04-09T04:50:57;99805.78;;;9.20;70.49
59939;BME280;45801;51.810;19.444;2023-04-09T04:53:24;99805.92;;;9.20;70.84
59939;BME280;45801;51.810;19.444;2023-04-09T04:55:51;99803.36;;;9.15;71.15
59939;BME280;45801;51.810;19.444;2023-04-09T04:58:18;99803.13;;;9.13;70.66
59939;BME280;45801;51.810;19.444;2023-04-09T05:00:45;99803.05;;;9.12;70.61
59939;BME280;45801;51.810;19.444;2023-04-09T05:03:12;99806.95;;;9.13;70.43
59939;BME280;45801;51.810;19.444;2023-04-09T05:05:39;99809.56;;;9.13;70.49
59939;BME280;45801;51.810;19.444;2023-04-09T05:08:06;99811.06;;;9.12;70.85
59939;BME280;45801;51.810;19.444;2023-04-09T05:10:33;99814.11;;;9.10;71.32
59939;BME280;45801;51.810;19.444;2023-04-09T05:12:59;99810.20;;;9.06;72.16
59939;BME280;45801;51.810;19.444;2023-04-09T05:15:26;99807.98;;;9.01;71.87
59939;BME280;45801;51.810;19.444;2023-04-09T05:17:52;99804.16;;;8.92;72.94
59939;BME280;45801;51.810;19.444;2023-04-09T05:20:19;99801.59;;;8.90;72.34
59939;BME280;45801;51.810;19.444;2023-04-09T05:22:46;99807.37;;;8.93;71.59
59939;BME280;45801;51.810;19.444;2023-04-09T05:25:12;99810.19;;;8.94;72.19
59939;BME280;45801;51.810;19.444;2023-04-09T05:27:41;99811.41;;;8.94;71.77
59939;BME280;45801;51.810;19.444;2023-04-09T05:30:08;99814.21;;;8.97;71.62
59939;BME280;45801;51.810;19.444;2023-04-09T05:32:34;99814.31;;;9.01;71.87
59939;BME280;45801;51.810;19.444;2023-04-09T05:35:01;99813.85;;;9.06;71.45
59939;BME280;45801;51.810;19.444;2023-04-09T05:37:27;99813.42;;;9.08;71.33
59939;BME280;45801;51.810;19.444;2023-04-09T05:39:55;99810.88;;;9.09;71.73
59939;BME280;45801;51.810;19.444;2023-04-09T05:42:22;99813.21;;;9.10;71.72
59939;BME280;45801;51.810;19.444;2023-04-09T05:44:48;99811.91;;;9.11;71.20
59939;BME280;45801;51.810;19.444;2023-04-09T05:47:15;99812.59;;;9.14;71.00
59939;BME280;45801;51.810;19.444;2023-04-09T05:49:41;99812.62;;;9.17;70.85
59939;BME280;45801;51.810;19.444;2023-04-09T05:52:08;99813.77;;;9.22;70.95
59939;BME280;45801;51.810;19.444;2023-04-09T05:54:34;99812.67;;;9.25;71.14
59939;BME280;45801;51.810;19.444;2023-04-09T05:57:00;99815.00;;;9.25;71.17
59939;BME280;45801;51.810;19.444;2023-04-09T05:59:27;99813.82;;;9.26;71.25
59939;BME280;45801;51.810;19.444;2023-04-09T06:01:53;99817.11;;;9.29;70.95
59939;BME280;45801;51.810;19.444;2023-04-09T06:04:20;99816.66;;;9.30;71.13
59939;BME280;45801;51.810;19.444;2023-04-09T06:06:46;99822.46;;;9.30;70.99
59939;BME280;45801;51.810;19.444;2023-04-09T06:09:13;99821.36;;;9.33;70.87
59939;BME280;45801;51.810;19.444;2023-04-09T06:11:39;99826.09;;;9.36;70.95
59939;BME280;45801;51.810;19.444;2023-04-09T06:14:06;99824.43;;;9.38;70.92
59939;BME280;45801;51.810;19.444;2023-04-09T06:16:33;99826.13;;;9.33;70.89
59939;BME280;45801;51.810;19.444;2023-04-09T06:19:00;99829.20;;;9.32;70.94
59939;BME280;45801;51.810;19.444;2023-04-09T06:21:26;99828.67;;;9.29;71.09
59939;BME280;45801;51.810;19.444;2023-04-09T06:23:53;99826.41;;;9.20;71.97
59939;BME280;45801;51.810;19.444;2023-04-09T06:26:19;99822.38;;;9.11;72.58
59939;BME280;45801;51.810;19.444;2023-04-09T06:28:46;99822.47;;;9.04;72.62
59939;BME280;45801;51.810;19.444;2023-04-09T06:31:13;99824.96;;;9.05;71.93
59939;BME280;45801;51.810;19.444;2023-04-09T06:33:39;99828.55;;;9.09;71.50
59939;BME280;45801;51.810;19.444;2023-04-09T06:36:06;99833.84;;;9.10;72.13
59939;BME280;45801;51.810;19.444;2023-04-09T06:38:33;99834.32;;;9.12;72.06
59939;BME280;45801;51.810;19.444;2023-04-09T06:40:59;99836.20;;;9.11;72.22
59939;BME280;45801;51.810;19.444;2023-04-09T06:43:26;99841.52;;;9.12;71.91
59939;BME280;45801;51.810;19.444;2023-04-09T06:45:52;99844.48;;;9.18;71.53
59939;BME280;45801;51.810;19.444;2023-04-09T06:48:19;99847.12;;;9.25;71.26
59939;BME280;45801;51.810;19.444;2023-04-09T06:50:46;99851.65;;;9.30;71.35
59939;BME280;45801;51.810;19.444;2023-04-09T06:53:13;99852.70;;;9.33;71.48
59939;BME280;45801;51.810;19.444;2023-04-09T06:55:40;99856.10;;;9.34;71.80
59939;BME280;45801;51.810;19.444;2023-04-09T06:58:07;99858.52;;;9.41;71.20
59939;BME280;45801;51.810;19.444;2023-04-09T07:00:33;99862.92;;;9.44;72.05
59939;BME280;45801;51.810;19.444;2023-04-09T07:03:00;99862.63;;;9.48;72.01
59939;BME280;45801;51.810;19.444;2023-04-09T07:05:27;99860.16;;;9.54;72.18
59939;BME280;45801;51.810;19.444;2023-04-09T07:07:53;99857.26;;;9.58;71.70
59939;BME280;45801;51.810;19.444;2023-04-09T07:10:20;99860.44;;;9.56;71.71
59939;BME280;45801;51.810;19.444;2023-04-09T07:12:49;99858.02;;;9.60;71.72
59939;BME280;45801;51.810;19.444;2023-04-09T07:15:15;99856.55;;;9.67;71.41
59939;BME280;45801;51.810;19.444;2023-04-09T07:17:42;99853.70;;;9.76;71.54
59939;BME280;45801;51.810;19.444;2023-04-09T07:20:09;99857.08;;;9.86;71.24
59939;BME280;45801;51.810;19.444;2023-04-09T07:22:36;99854.83;;;9.99;70.99
59939;BME280;45801;51.810;19.444;2023-04-09T07:25:02;99854.61;;;10.14;70.74
59939;BME280;45801;51.810;19.444;2023-04-09T07:27:29;99855.37;;;10.25;70.39
59939;BME280;45801;51.810;19.444;2023-04-09T07:29:59;99858.30;;;10.31;69.95
59939;BME280;45801;51.810;19.444;2023-04-09T07:32:26;99859.02;;;10.34;69.55
59939;BME280;45801;51.810;19.444;2023-04-09T07:34:56;99855.89;;;10.34;69.66
59939;BME280;45801;51.810;19.444;2023-04-09T07:37:24;99857.12;;;10.34;69.72
59939;BME280;45801;51.810;19.444;2023-04-09T07:39:52;99860.48;;;10.35;69.73
59939;BME280;45801;51.810;19.444;2023-04-09T07:42:19;99862.97;;;10.39;69.81
59939;BME280;45801;51.810;19.444;2023-04-09T07:44:45;99861.56;;;10.45;69.71
59939;BME280;45801;51.810;19.444;2023-04-09T07:47:12;99862.97;;;10.52;69.48
59939;BME280;45801;51.810;19.444;2023-04-09T07:49:39;99863.03;;;10.59;69.32
59939;BME280;45801;51.810;19.444;2023-04-09T07:52:06;99865.30;;;10.66;69.46
59939;BME280;45801;51.810;19.444;2023-04-09T07:54:33;99868.90;;;10.71;69.30
59939;BME280;45801;51.810;19.444;2023-04-09T07:57:00;99866.89;;;10.75;68.87
59939;BME280;45801;51.810;19.444;2023-04-09T07:59:27;99865.91;;;10.74;68.42
59939;BME280;45801;51.810;19.444;2023-04-09T08:01:55;99862.21;;;10.77;68.47
59939;BME280;45801;51.810;19.444;2023-04-09T08:04:22;99858.35;;;10.81;68.46
59939;BME280;45801;51.810;19.444;2023-04-09T08:06:49;99858.66;;;10.76;68.40
59939;BME280;45801;51.810;19.444;2023-04-09T08:09:17;99860.93;;;10.76;68.21
59939;BME280;45801;51.810;19.444;2023-04-09T08:11:43;99858.06;;;10.82;68.88
59939;BME280;45801;51.810;19.444;2023-04-09T08:14:11;99858.05;;;10.95;68.69
59939;BME280;45801;51.810;19.444;2023-04-09T08:16:45;99854.69;;;11.11;68.56
59939;BME280;45801;51.810;19.444;2023-04-09T08:19:14;99853.06;;;11.28;67.87
59939;BME280;45801;51.810;19.444;2023-04-09T08:21:42;99848.86;;;11.39;66.80
59939;BME280;45801;51.810;19.444;2023-04-09T08:24:10;99853.68;;;11.44;66.25
59939;BME280;45801;51.810;19.444;2023-04-09T08:26:37;99855.21;;;11.50;66.03
59939;BME280;45801;51.810;19.444;2023-04-09T08:29:04;99854.70;;;11.54;65.80
59939;BME280;45801;51.810;19.444;2023-04-09T08:31:31;99855.41;;;11.61;65.94
59939;BME280;45801;51.810;19.444;2023-04-09T08:33:57;99850.65;;;11.64;65.84
59939;BME280;45801;51.810;19.444;2023-04-09T08:36:24;99849.78;;;11.68;66.21
59939;BME280;45801;51.810;19.444;2023-04-09T08:38:51;99852.80;;;11.69;65.92
59939;BME280;45801;51.810;19.444;2023-04-09T08:41:24;99851.45;;;11.70;65.83
59939;BME280;45801;51.810;19.444;2023-04-09T08:43:52;99851.77;;;11.69;66.00
59939;BME280;45801;51.810;19.444;2023-04-09T08:46:18;99851.48;;;11.67;66.27
59939;BME280;45801;51.810;19.444;2023-04-09T08:48:46;99850.05;;;11.66;65.73
59939;BME280;45801;51.810;19.444;2023-04-09T08:51:14;99852.19;;;11.64;65.54
59939;BME280;45801;51.810;19.444;2023-04-09T08:53:45;99852.61;;;11.64;66.00
59939;BME280;45801;51.810;19.444;2023-04-09T08:56:13;99850.40;;;11.62;65.43
59939;BME280;45801;51.810;19.444;2023-04-09T08:58:44;99851.06;;;11.66;65.61
59939;BME280;45801;51.810;19.444;2023-04-09T09:01:28;99850.13;;;11.68;65.76
59939;BME280;45801;51.810;19.444;2023-04-09T09:04:03;99853.46;;;11.68;66.15
59939;BME280;45801;51.810;19.444;2023-04-09T09:06:32;99857.15;;;11.68;65.96
59939;BME280;45801;51.810;19.444;2023-04-09T09:11:37;99853.45;;;11.67;66.06
59939;BME280;45801;51.810;19.444;2023-04-09T09:14:17;99856.25;;;11.64;65.51
59939;BME280;45801;51.810;19.444;2023-04-09T09:21:56;99862.89;;;11.71;65.17
59939;BME280;45801;51.810;19.444;2023-04-09T09:24:24;99862.98;;;11.72;65.14
59939;BME280;45801;51.810;19.444;2023-04-09T09:26:51;99861.79;;;11.73;65.15
59939;BME280;45801;51.810;19.444;2023-04-09T09:29:18;99863.23;;;11.71;64.54
59939;BME280;45801;51.810;19.444;2023-04-09T09:31:50;99864.84;;;11.71;64.60
59939;BME280;45801;51.810;19.444;2023-04-09T09:34:17;99865.39;;;11.68;64.18
59939;BME280;45801;51.810;19.444;2023-04-09T09:36:45;99864.16;;;11.67;64.46
59939;BME280;45801;51.810;19.444;2023-04-09T09:39:13;99860.34;;;11.69;64.20
59939;BME280;45801;51.810;19.444;2023-04-09T09:41:40;99858.91;;;11.72;64.31
59939;BME280;45801;51.810;19.444;2023-04-09T09:44:09;99860.13;;;11.75;64.54
59939;BME280;45801;51.810;19.444;2023-04-09T09:46:38;99860.42;;;11.81;64.67
59939;BME280;45801;51.810;19.444;2023-04-09T09:49:06;99861.00;;;11.90;64.61
59939;BME280;45801;51.810;19.444;2023-04-09T09:51:35;99858.56;;;11.97;64.11
59939;BME280;45801;51.810;19.444;2023-04-09T09:54:02;99857.55;;;12.01;63.92
59939;BME280;45801;51.810;19.444;2023-04-09T09:56:30;99854.55;;;12.05;63.76
59939;BME280;45801;51.810;19.444;2023-04-09T09:59:05;99855.94;;;12.04;62.87
59939;BME280;45801;51.810;19.444;2023-04-09T10:01:33;99853.00;;;12.01;62.67
59939;BME280;45801;51.810;19.444;2023-04-09T10:04:04;99853.03;;;11.95;62.70
59939;BME280;45801;51.810;19.444;2023-04-09T10:06:32;99847.78;;;11.95;62.91
59939;BME280;45801;51.810;19.444;2023-04-09T10:09:03;99845.27;;;12.01;63.20
59939;BME280;45801;51.810;19.444;2023-04-09T10:11:34;99848.70;;;12.07;63.10
59939;BME280;45801;51.810;19.444;2023-04-09T10:14:02;99846.25;;;12.11;62.95
59939;BME280;45801;51.810;19.444;2023-04-09T10:16:31;99845.02;;;12.18;62.82
59939;BME280;45801;51.810;19.444;2023-04-09T10:18:58;99847.82;;;12.23;62.57
59939;BME280;45801;51.810;19.444;2023-04-09T10:21:44;99847.90;;;12.24;62.26
59939;BME280;45801;51.810;19.444;2023-04-09T10:24:15;99846.20;;;12.30;62.47
59939;BME280;45801;51.810;19.444;2023-04-09T10:26:42;99840.58;;;12.37;62.63
59939;BME280;45801;51.810;19.444;2023-04-09T10:29:14;99841.36;;;12.42;61.80
59939;BME280;45801;51.810;19.444;2023-04-09T10:31:51;99839.37;;;12.49;62.20
59939;BME280;45801;51.810;19.444;2023-04-09T10:34:25;99841.65;;;12.56;61.94
59939;BME280;45801;51.810;19.444;2023-04-09T10:36:57;99839.34;;;12.64;62.18
59939;BME280;45801;51.810;19.444;2023-04-09T10:39:31;99839.98;;;12.70;62.07
59939;BME280;45801;51.810;19.444;2023-04-09T10:41:58;99839.29;;;12.74;60.70
59939;BME280;45801;51.810;19.444;2023-04-09T10:44:26;99841.96;;;12.71;60.90
59939;BME280;45801;51.810;19.444;2023-04-09T10:46:53;99841.98;;;12.72;61.22
59939;BME280;45801;51.810;19.444;2023-04-09T10:49:22;99843.42;;;12.72;61.46
59939;BME280;45801;51.810;19.444;2023-04-09T10:52:07;99842.77;;;12.74;60.86
59939;BME280;45801;51.810;19.444;2023-04-09T10:54:40;99844.34;;;12.70;60.12
59939;BME280;45801;51.810;19.444;2023-04-09T10:59:43;99842.17;;;12.56;60.90
59939;BME280;45801;51.810;19.444;2023-04-09T11:05:18;99840.98;;;12.49;60.00
59939;BME280;45801;51.810;19.444;2023-04-09T11:08:09;99842.21;;;12.50;60.31
59939;BME280;45801;51.810;19.444;2023-04-09T11:10:38;99842.93;;;12.50;60.30
59939;BME280;45801;51.810;19.444;2023-04-09T11:13:04;99841.86;;;12.46;60.68
59939;BME280;45801;51.810;19.444;2023-04-09T11:15:34;99843.00;;;12.40;61.07
59939;BME280;45801;51.810;19.444;2023-04-09T11:18:01;99845.08;;;12.35;61.67
59939;BME280;45801;51.810;19.444;2023-04-09T11:20:28;99846.85;;;12.36;61.90
59939;BME280;45801;51.810;19.444;2023-04-09T11:22:57;99846.58;;;12.37;62.16
59939;BME280;45801;51.810;19.444;2023-04-09T11:25:26;99849.08;;;12.38;61.98
59939;BME280;45801;51.810;19.444;2023-04-09T11:27:53;99846.30;;;12.39;62.00
59939;BME280;45801;51.810;19.444;2023-04-09T11:30:20;99847.42;;;12.40;61.97
59939;BME280;45801;51.810;19.444;2023-04-09T11:32:48;99844.93;;;12.44;61.82
59939;BME280;45801;51.810;19.444;2023-04-09T11:35:17;99845.45;;;12.47;61.84
59939;BME280;45801;51.810;19.444;2023-04-09T11:37:44;99846.86;;;12.52;61.86
59939;BME280;45801;51.810;19.444;2023-04-09T11:40:18;99846.71;;;12.56;61.56
59939;BME280;45801;51.810;19.444;2023-04-09T11:42:48;99845.65;;;12.60;61.85
59939;BME280;45801;51.810;19.444;2023-04-09T11:45:16;99845.00;;;12.65;61.85
59939;BME280;45801;51.810;19.444;2023-04-09T11:47:43;99844.33;;;12.70;61.74
59939;BME280;45801;51.810;19.444;2023-04-09T11:50:11;99847.92;;;12.76;61.64
59939;BME280;45801;51.810;19.444;2023-04-09T11:52:38;99852.64;;;12.78;61.19
59939;BME280;45801;51.810;19.444;2023-04-09T11:55:08;99848.54;;;12.81;61.20
59939;BME280;45801;51.810;19.444;2023-04-09T11:57:45;99850.36;;;12.82;61.07
59939;BME280;45801;51.810;19.444;2023-04-09T12:00:13;99851.42;;;12.87;61.35
59939;BME280;45801;51.810;19.444;2023-04-09T12:02:44;99845.48;;;12.96;61.44
59939;BME280;45801;51.810;19.444;2023-04-09T12:05:23;99846.41;;;13.01;61.57
59939;BME280;45801;51.810;19.444;2023-04-09T12:07:56;99848.18;;;13.01;61.34
59939;BME280;45801;51.810;19.444;2023-04-09T12:10:29;99845.70;;;12.96;60.98
59939;BME280;45801;51.810;19.444;2023-04-09T12:13:07;99848.88;;;12.89;61.09
59939;BME280;45801;51.810;19.444;2023-04-09T12:15:35;99849.48;;;12.83;61.51
59939;BME280;45801;51.810;19.444;2023-04-09T12:18:07;99852.98;;;12.78;61.69
59939;BME280;45801;51.810;19.444;2023-04-09T12:20:36;99852.95;;;12.73;61.79
59939;BME280;45801;51.810;19.444;2023-04-09T12:23:05;99855.58;;;12.73;62.20
59939;BME280;45801;51.810;19.444;2023-04-09T12:25:35;99853.56;;;12.75;62.29
59939;BME280;45801;51.810;19.444;2023-04-09T12:28:07;99854.45;;;12.79;62.36
59939;BME280;45801;51.810;19.444;2023-04-09T12:30:34;99853.14;;;12.86;62.36
59939;BME280;45801;51.810;19.444;2023-04-09T12:33:02;99850.77;;;12.92;62.38
59939;BME280;45801;51.810;19.444;2023-04-09T12:35:29;99847.28;;;12.97;62.01
59939;BME280;45801;51.810;19.444;2023-04-09T12:37:56;99845.05;;;12.98;61.61
59939;BME280;45801;51.810;19.444;2023-04-09T12:40:24;99844.23;;;12.99;61.94
59939;BME280;45801;51.810;19.444;2023-04-09T12:42:51;99848.81;;;13.04;61.79
59939;BME280;45801;51.810;19.444;2023-04-09T12:45:18;99848.05;;;13.02;61.02
59939;BME280;45801;51.810;19.444;2023-04-09T12:47:47;99846.20;;;13.00;61.23
59939;BME280;45801;51.810;19.444;2023-04-09T12:50:14;99844.79;;;12.96;61.02
59939;BME280;45801;51.810;19.444;2023-04-09T12:52:44;99841.03;;;12.90;61.20
59939;BME280;45801;51.810;19.444;2023-04-09T12:55:12;99843.10;;;12.85;61.24
59939;BME280;45801;51.810;19.444;2023-04-09T12:57:42;99844.16;;;12.82;61.21
59939;BME280;45801;51.810;19.444;2023-04-09T13:00:09;99842.42;;;12.78;61.06
59939;BME280;45801;51.810;19.444;2023-04-09T13:02:36;99841.19;;;12.78;61.35
59939;BME280;45801;51.810;19.444;2023-04-09T13:05:03;99842.73;;;12.77;61.05
59939;BME280;45801;51.810;19.444;2023-04-09T13:07:29;99845.40;;;12.78;61.47
59939;BME280;45801;51.810;19.444;2023-04-09T13:09:56;99841.01;;;12.82;61.63
59939;BME280;45801;51.810;19.444;2023-04-09T13:12:23;99839.59;;;12.85;61.19
59939;BME280;45801;51.810;19.444;2023-04-09T13:14:52;99839.90;;;12.88;61.33
59939;BME280;45801;51.810;19.444;2023-04-09T13:17:19;99840.28;;;12.93;61.64
59939;BME280;45801;51.810;19.444;2023-04-09T13:19:45;99839.98;;;12.99;61.32
59939;BME280;45801;51.810;19.444;2023-04-09T13:22:12;99838.73;;;13.02;60.99